Latest Weather Observations for Cape Borda

IDS60801

Issued at 2:01 pm CDT Sunday 22 January 2017 (issued every 30 minutes, with the page automatically refreshed every 10 minutes)

About weather observations | Map of weather stations | Latest weather observations for SA | Other Formats
Station Details ID: 022823 Name: CAPE BORDA Lat: -35.75 Lon: 136.60 Height: 158.0 m
Data from the previous 72 hours. | See also: Recent months at Cape Borda
Date/Time
CDT
Temp
°C
App
Temp
°C
Dew
Point
°C
Rel
Hum
%
Delta-T
°C
Wind Press
QNH
hPa
Press
MSL
hPa
Rain since
9am
mm
Dir  Spd
km/h
Gust
km/h
Spd
kts
Gust
kts
22/02:00pm 24.7 22.1 13.1 48 6.8 NE 19 26 10 14 1010.1 - 0.0
22/01:30pm 25.2 22.6 13.1 47 7.1 NE 19 28 10 15 1010.3 - 0.0
22/01:00pm 24.1 21.7 13.8 52 6.1 NE 19 26 10 14 1010.7 - 0.0
22/12:30pm 23.5 21.2 14.6 57 5.3 NE 20 28 11 15 1010.9 - 0.0
22/12:00pm 23.7 20.4 13.9 54 5.8 NE 24 32 13 17 1011.2 1010.9 0.0
22/11:30am 23.5 20.5 14.8 58 5.2 NE 24 32 13 17 1011.4 - 0.0
22/11:00am 23.4 20.3 15.5 61 4.8 NE 26 33 14 18 1011.6 - 0.0
22/10:30am 22.5 19.6 15.0 62 4.5 NE 24 32 13 17 1011.6 - 0.0
22/10:00am 21.9 18.7 15.4 66 3.9 ENE 26 35 14 19 1011.9 - 0.0
22/09:30am 21.5 18.4 15.5 68 3.6 ENE 26 33 14 18 1012.2 - 0.0
22/09:00am 21.1 18.2 15.2 69 3.5 NE 24 32 13 17 1012.4 1012.1 0.0
22/08:30am 20.4 17.8 14.8 70 3.3 ENE 22 30 12 16 1012.3 - 0.0
22/08:00am 19.7 17.2 14.2 70 3.2 ENE 20 30 11 16 1012.1 - 0.0
22/07:30am 18.7 16.2 14.2 75 2.6 ENE 20 28 11 15 1011.9 - 0.0
22/07:00am 17.7 15.1 13.7 77 2.3 ENE 20 24 11 13 1011.9 - 0.0
22/06:30am 17.4 14.2 13.2 76 2.4 ENE 22 28 12 15 1011.7 - 0.0
22/06:00am 17.2 13.9 12.9 76 2.4 ENE 22 26 12 14 1011.6 1011.3 0.0
22/05:30am 17.3 14.3 12.7 74 2.6 ENE 20 26 11 14 1011.5 - 0.0
22/05:00am 17.5 14.0 12.1 70 3.0 ENE 22 32 12 17 1010.9 - 0.0
22/04:30am 16.9 13.7 12.0 73 2.7 E 20 28 11 15 1010.8 - 0.0
22/04:00am 17.0 13.2 11.3 69 3.1 E 22 28 12 15 1011.1 - 0.0
22/03:30am 16.4 12.6 11.0 70 2.9 E 22 30 12 16 1011.3 - 0.0
22/03:00am 15.1 11.7 11.4 78 2.0 E 20 24 11 13 1011.6 1011.3 0.0
22/02:30am 14.1 10.9 11.9 86 1.2 E 20 26 11 14 1011.9 - 0.0
22/02:00am 14.1 10.6 12.1 88 1.1 E 22 26 12 14 1012.4 - 0.0
22/01:30am 14.1 10.6 12.1 88 1.1 E 22 28 12 15 1012.8 - 0.0
22/01:00am 14.0 10.3 11.6 85 1.3 E 22 26 12 14 1013.2 - 0.0
22/12:30am 13.8 10.7 12.1 89 0.9 ESE 20 24 11 13 1013.2 - 0.0
22/12:00am 14.2 11.2 12.4 89 1.0 ESE 20 26 11 14 1013.4 1013.1 0.0
 
Date/Time
CDT
Temp
°C
App
Temp
°C
Dew
Point
°C
Rel
Hum
%
Delta-T
°C
Wind Press
QNH
hPa
Press
MSL
hPa
Rain since
9am
mm
Dir  Spd
km/h
Gust
km/h
Spd
kts
Gust
kts
21/11:30pm 14.6 10.9 12.6 88 1.1 ESE 24 33 13 18 1013.6 - 0.0
21/11:00pm 14.6 11.3 12.8 89 1.0 ESE 22 32 12 17 1013.9 - 0.0
21/10:30pm 14.9 11.6 12.7 87 1.2 ESE 22 30 12 16 1014.3 - 0.0
21/10:00pm 15.2 11.8 12.5 84 1.5 ESE 22 33 12 18 1014.3 - 0.0
21/09:30pm 15.4 11.6 12.5 83 1.6 ESE 24 35 13 19 1013.9 - 0.0
21/09:00pm 15.9 11.7 12.5 80 1.9 ESE 26 39 14 21 1013.6 1013.3 0.0
21/08:30pm 16.6 12.5 12.8 78 2.1 ESE 26 33 14 18 1013.5 - 0.0
21/08:00pm 17.6 12.4 12.8 73 2.7 SE 32 44 17 24 1013.2 - 0.0
21/07:30pm 18.6 14.3 13.1 70 3.1 SE 28 44 15 24 1013.0 - 0.0
21/07:00pm 19.5 14.8 13.2 67 3.6 SE 30 39 16 21 1013.2 - 0.0
21/06:30pm 20.1 15.5 13.5 66 3.8 SE 30 44 16 24 1013.3 - 0.0
21/06:00pm 20.7 17.0 13.8 64 4.0 SSE 26 37 14 20 1013.6 1013.3 0.0
21/05:30pm 20.9 17.6 13.9 64 4.1 SSE 24 32 13 17 1013.9 - 0.0
21/05:00pm 20.7 17.7 13.6 64 4.1 S 22 30 12 16 1014.5 - 0.0
21/04:30pm 20.0 17.3 13.4 65 3.8 SSE 20 28 11 15 1014.7 - 0.0
21/04:00pm 19.4 16.0 12.5 64 3.9 SW 22 32 12 17 1014.8 - 0.0
21/03:30pm 20.2 17.2 12.6 61 4.3 SW 20 26 11 14 1015.0 - 0.0
21/03:00pm 19.4 17.0 12.7 65 3.8 SW 17 24 9 13 1015.2 1014.8 0.0
21/02:30pm 19.2 17.4 12.2 64 3.9 WNW 13 19 7 10 1015.4 - 0.0
21/02:00pm 20.0 17.6 12.6 62 4.2 N 17 20 9 11 1015.4 - 0.0
21/01:30pm 19.9 17.1 12.7 63 4.1 N 19 22 10 12 1015.4 - 0.0
21/01:00pm 20.5 18.1 12.8 61 4.4 N 17 22 9 12 1015.6 - 0.0
21/12:30pm 20.4 17.5 12.9 62 4.3 N 20 22 11 12 1015.7 - 0.0
21/12:00pm 20.0 17.3 12.8 63 4.1 N 19 24 10 13 1015.3 1014.9 0.0
21/11:30am 19.5 16.5 12.0 62 4.2 NNE 19 24 10 13 1015.6 - 0.0
21/11:00am 18.5 15.3 12.0 66 3.6 NE 20 26 11 14 1015.5 - 0.0
21/10:30am 18.5 15.3 11.8 65 3.7 NE 20 28 11 15 1015.5 - 0.0
21/10:00am 18.2 14.8 11.1 63 3.9 NE 20 30 11 16 1015.4 - 0.0
21/09:30am 17.7 15.1 12.1 69 3.1 NE 17 26 9 14 1015.6 - 0.0
21/09:00am 17.0 14.4 11.9 72 2.8 NE 17 24 9 13 1015.5 1015.1 0.0
21/08:30am 16.3 14.6 12.5 78 2.1 E 13 17 7 9 1015.4 - 0.0
21/08:00am 15.2 14.0 12.9 86 1.3 E 11 13 6 7 1015.3 - 0.0
21/07:30am 13.7 12.7 12.2 91 0.8 E 9 11 5 6 1014.9 - 0.0
21/07:00am 12.1 10.0 11.0 93 0.6 E 13 15 7 8 1014.4 - 0.0
21/06:30am 11.1 8.3 10.1 94 0.5 ESE 15 17 8 9 1014.2 - 0.0
21/06:00am 11.5 8.8 10.5 94 0.5 ESE 15 17 8 9 1014.3 1013.9 0.0
21/05:30am 11.5 9.2 10.5 94 0.5 ESE 13 15 7 8 1013.9 - 0.0
21/05:00am 11.5 9.6 10.5 94 0.5 SE 11 13 6 7 1013.8 - 0.0
21/04:30am 11.8 9.6 10.8 94 0.5 SE 13 13 7 7 1013.8 - 0.0
21/04:00am 12.0 9.8 10.9 93 0.6 SE 13 15 7 8 1013.5 - 0.0
21/03:30am 12.1 9.6 11.2 94 0.5 SE 15 15 8 8 1013.5 - 0.0
21/03:00am 12.4 10.3 11.3 93 0.6 SSE 13 15 7 8 1013.9 1013.6 0.0
21/02:30am 12.4 10.3 11.3 93 0.6 SSE 13 15 7 8 1013.9 - 0.0
21/02:00am 12.3 9.8 11.2 93 0.6 SSE 15 15 8 8 1013.8 - 0.0
21/01:30am 12.6 10.2 11.3 92 0.7 SSE 15 17 8 9 1013.8 - 0.0
21/01:00am 12.6 10.2 11.3 92 0.7 SSE 15 15 8 8 1013.9 - 0.0
21/12:30am 12.8 10.4 11.5 92 0.7 SSE 15 17 8 9 1013.8 - 0.0
21/12:00am 13.1 11.2 11.8 92 0.7 SSE 13 15 7 8 1013.7 1013.4 0.0
 
Date/Time
CDT
Temp
°C
App
Temp
°C
Dew
Point
°C
Rel
Hum
%
Delta-T
°C
Wind Press
QNH
hPa
Press
MSL
hPa
Rain since
9am
mm
Dir  Spd
km/h
Gust
km/h
Spd
kts
Gust
kts
20/11:30pm 13.0 11.1 11.7 92 0.7 SSE 13 15 7 8 1013.6 - 0.0
20/11:00pm 13.1 10.8 11.8 92 0.7 SSE 15 17 8 9 1013.5 - 0.0
20/10:30pm 13.0 11.1 11.7 92 0.7 SSE 13 15 7 8 1013.2 - 0.0
20/10:00pm 13.5 11.7 12.0 91 0.8 SSE 13 15 7 8 1012.8 - 0.0
20/09:30pm 14.0 11.8 12.2 89 1.0 SSE 15 17 8 9 1012.5 - 0.0
20/09:00pm 14.8 12.6 12.1 84 1.5 S 15 19 8 10 1012.2 1011.9 0.0
20/08:30pm 15.7 13.9 12.1 79 2.0 S 13 19 7 10 1011.9 - 0.0
20/08:00pm 17.5 15.0 12.3 71 2.9 S 17 24 9 13 1011.6 - 0.0
20/07:30pm 18.5 15.8 12.8 69 3.2 SSW 19 28 10 15 1011.2 - 0.0
20/07:00pm 19.0 16.0 12.6 66 3.6 SSW 20 28 11 15 1010.8 - 0.0
20/06:30pm 17.2 14.3 12.4 73 2.7 SSW 19 30 10 16 1010.4 - 0.0
20/06:00pm 17.5 14.5 12.5 72 2.8 SSW 20 28 11 15 1010.2 1009.8 0.0
20/05:30pm 18.3 15.4 12.8 70 3.1 SSW 20 26 11 14 1010.2 - 0.0
20/05:00pm 20.1 16.5 12.9 63 4.1 SW 24 32 13 17 1010.1 - 0.0
20/04:30pm 19.8 15.7 12.8 64 4.0 SW 26 32 14 17 1010.0 - 0.0
20/04:00pm 19.5 16.0 12.2 62 4.1 SW 22 33 12 18 1010.0 - 0.0
20/03:30pm 19.9 15.4 12.7 63 4.1 SW 28 35 15 19 1009.8 - 0.0
20/03:00pm 19.8 15.7 11.5 58 4.6 SSW 24 39 13 21 1009.8 1009.4 0.0
20/02:30pm 19.9 15.7 11.2 57 4.8 SSW 24 35 13 19 1009.6 - 0.0
20/02:00pm 20.1 16.8 12.7 62 4.2 SSW 22 30 12 16 1009.7 - 0.0
20/01:30pm 19.0 15.6 12.4 65 3.7 SSW 22 30 12 16 1009.5 - 0.0
20/01:00pm 18.5 14.8 12.7 69 3.3 SSW 24 30 13 16 1009.4 - 0.0
20/12:30pm 18.6 14.8 12.4 67 3.5 S 24 33 13 18 1009.1 - 0.0
20/12:00pm 18.8 15.1 12.6 67 3.5 S 24 37 13 20 1008.7 1008.3 0.0
20/11:30am 18.3 13.6 12.0 66 3.5 S 28 39 15 21 1008.4 - 0.0
20/11:00am 17.4 13.2 12.4 72 2.8 S 26 35 14 19 1008.1 - 0.0
20/10:30am 16.6 12.9 12.7 78 2.2 S 24 33 13 18 1007.9 - 0.0
20/10:00am 17.3 13.1 12.5 73 2.7 S 26 41 14 22 1007.6 - 0.0
20/09:30am 15.6 10.2 12.3 81 1.8 S 32 43 17 23 1007.5 - 0.0
20/09:00am 15.4 11.2 12.3 82 1.7 S 26 41 14 22 1007.1 1006.8 9.4
20/08:30am 14.9 10.0 12.4 85 1.4 S 30 43 16 23 1006.5 - 9.4
20/08:00am 14.5 9.8 12.1 85 1.3 S 28 39 15 21 1005.9 - 9.4
20/07:30am 14.2 9.8 12.9 92 0.7 S 28 39 15 21 1005.1 - 9.4
20/07:00am 14.3 10.4 13.2 93 0.6 S 26 37 14 20 1004.5 - 9.4
20/06:30am 14.1 9.8 13.2 94 0.5 S 28 39 15 21 1003.7 - 9.4
20/06:00am 14.0 8.5 13.5 97 0.3 S 35 46 19 25 1003.1 1002.7 9.4
20/05:30am 14.4 10.0 14.0 97 0.2 S 30 41 16 22 1002.9 - 9.4
20/05:00am 14.6 10.6 14.1 97 0.3 S 28 37 15 20 1002.5 - 9.4
20/04:30am 14.7 10.3 14.0 96 0.4 S 30 41 16 22 1002.2 - 9.2
20/04:00am 15.0 10.7 14.3 96 0.4 S 30 43 16 23 1001.8 - 9.2
20/03:30am 15.2 10.4 14.7 97 0.3 SSW 33 44 18 24 1001.6 - 9.2
20/03:00am 15.7 11.7 15.2 97 0.3 SSW 30 43 16 23 1001.3 1000.9 9.2
20/02:30am 15.8 13.6 14.9 94 0.5 SSW 20 26 11 14 1001.1 - 9.2
20/02:00am 15.8 16.1 15.1 96 0.4 W 7 11 4 6 1001.1 - 9.2
20/01:30am 14.9 14.6 14.4 97 0.3 ESE 9 11 5 6 1001.4 - 9.2
20/01:00am 15.0 14.4 14.5 97 0.3 ESE 11 15 6 8 1000.6 - 9.2
20/12:30am 15.3 14.7 14.6 96 0.4 SE 11 15 6 8 1001.1 - 9.2
20/12:20am 15.2 13.8 14.5 96 0.4 ESE 15 20 8 11 1001.1 - 9.2
20/12:00am 15.1 12.0 14.6 97 0.3 ESE 24 30 13 16 999.1 998.7 9.2
 
Date/Time
CDT
Temp
°C
App
Temp
°C
Dew
Point
°C
Rel
Hum
%
Delta-T
°C
Wind Press
QNH
hPa
Press
MSL
hPa
Rain since
9am
mm
Dir  Spd
km/h
Gust
km/h
Spd
kts
Gust
kts
19/11:30pm 15.0 11.1 14.5 97 0.3 ESE 28 37 15 20 998.9 - 9.2
19/11:00pm 15.0 10.2 14.5 97 0.3 SE 33 46 18 25 998.8 - 9.2
19/10:30pm 14.8 9.5 14.3 97 0.3 SE 35 50 19 27 1000.0 - 8.8
19/10:10pm 14.8 8.4 14.3 97 0.3 SE 41 59 22 32 1000.5 - 8.4
19/10:00pm 14.8 7.8 14.3 97 0.3 SSE 44 59 24 32 1001.0 - 8.4
19/09:32pm 15.1 9.1 14.4 96 0.4 SSE 39 57 21 31 1001.9 - 4.8
19/09:30pm 15.1 8.8 14.6 97 0.3 SSE 41 57 22 31 1001.9 - 4.8
19/09:00pm 15.6 10.1 14.7 94 0.5 SSE 37 50 20 27 1002.1 1001.7 1.6
19/08:31pm 16.2 10.1 15.3 94 0.5 SSE 41 50 22 27 1001.4 - 1.6
19/08:30pm 16.2 - 15.5 96 0.4 - - - - - 1001.4 - 1.6
19/08:28pm 16.3 11.1 15.5 95 0.5 SSE 37 50 20 27 1001.6 - 1.6
19/08:00pm 17.4 11.3 16.2 93 0.7 S 43 61 23 33 1001.3 - 1.6
19/07:52pm 17.8 10.0 16.3 91 0.9 SSW 52 70 28 38 1000.9 - 1.4
19/07:50pm 18.4 10.0 16.6 89 1.1 SSW 56 70 30 38 1001.0 - 1.4
19/07:46pm 21.3 20.3 16.7 75 2.8 SSW 17 30 9 16 1000.9 - 1.0
19/07:30pm 22.6 21.5 14.4 60 4.9 SSW 13 17 7 9 998.8 - 0.0
19/07:00pm 23.4 22.2 12.9 51 6.1 S 11 13 6 7 998.8 - 0.0
19/06:30pm 25.1 22.4 11.7 43 7.7 NE 17 24 9 13 997.6 - 0.0
19/06:00pm 25.2 22.4 11.2 41 8.0 NE 17 22 9 12 998.0 997.6 0.0
19/05:30pm 25.2 22.6 11.9 43 7.6 NE 17 22 9 12 998.6 - 0.0
19/05:00pm 26.1 23.5 12.0 41 8.1 ENE 17 24 9 13 999.3 - 0.0
19/04:30pm 26.9 24.1 11.5 38 8.9 ENE 17 24 9 13 1000.1 - 0.0
19/04:00pm 26.4 24.1 11.9 40 8.4 NE 15 20 8 11 1001.1 - 0.0
19/03:30pm 26.2 23.2 12.5 42 8.0 ENE 20 30 11 16 1001.9 - 0.0
19/03:00pm 25.2 20.9 12.1 44 7.6 ENE 26 37 14 20 1002.8 1002.4 0.0
19/02:30pm 24.6 20.0 12.3 46 7.1 NE 28 39 15 21 1004.0 - 0.0

Other Formats:

Comma delimited format used in spreadsheet applications
http://www.bom.gov.au/fwo/IDS60801/IDS60801.95805.axf

JavaScript Object Notation format (JSON) in row-major order
http://www.bom.gov.au/fwo/IDS60801/IDS60801.95805.json